createdAt,value
2022-10-09T00:00:16.305Z,81.78
2022-10-09T00:02:44.459Z,82.06
2022-10-09T00:05:12.778Z,82.06
2022-10-09T00:07:40.855Z,82.44
2022-10-09T00:10:10.629Z,81.67
2022-10-09T00:12:38.944Z,82.01
2022-10-09T00:15:07.853Z,81.56
2022-10-09T00:17:35.943Z,81.02
2022-10-09T00:20:04.492Z,81.32
2022-10-09T00:22:32.512Z,81.35
2022-10-09T00:25:00.628Z,81.59
2022-10-09T00:27:30.029Z,80.76
2022-10-09T00:29:58.030Z,81.06
2022-10-09T00:32:26.246Z,82.03
2022-10-09T00:34:54.447Z,81.61
2022-10-09T00:37:22.536Z,81.67
2022-10-09T00:39:50.541Z,81.83
2022-10-09T00:42:18.536Z,81.72
2022-10-09T00:44:54.315Z,80.91
2022-10-09T00:47:26.618Z,81.70
2022-10-09T00:49:56.372Z,81.18
2022-10-09T00:52:25.295Z,82.08
2022-10-09T00:54:54.237Z,81.39
2022-10-09T00:57:22.482Z,82.33
2022-10-09T00:59:51.942Z,82.62
2022-10-09T01:02:20.102Z,81.51
2022-10-09T01:04:48.322Z,80.81
2022-10-09T01:07:25.865Z,81.79
2022-10-09T01:09:58.262Z,81.84
2022-10-09T01:12:33.237Z,81.79
2022-10-09T01:15:09.471Z,82.38
2022-10-09T01:17:42.211Z,82.28
2022-10-09T01:20:29.854Z,82.55
2022-10-09T01:27:31.970Z,82.17
2022-10-09T01:30:02.150Z,82.84
2022-10-09T01:32:32.805Z,81.95
2022-10-09T01:35:02.197Z,82.67
2022-10-09T01:37:31.979Z,82.05
2022-10-09T01:40:00.644Z,82.07
2022-10-09T01:42:30.547Z,81.62
2022-10-09T01:44:58.491Z,82.50
2022-10-09T01:47:26.637Z,82.17
2022-10-09T01:49:59.245Z,82.41
2022-10-09T01:52:37.076Z,82.25
2022-10-09T01:55:21.445Z,82.73
2022-10-09T01:57:53.697Z,82.07
2022-10-09T02:00:22.135Z,81.59
2022-10-09T02:02:51.600Z,81.57
2022-10-09T02:05:22.555Z,81.92
2022-10-09T02:07:50.799Z,81.36
2022-10-09T02:10:19.883Z,81.15
2022-10-09T02:12:52.092Z,80.82
2022-10-09T02:15:21.895Z,80.75
2022-10-09T02:17:50.981Z,81.28
2022-10-09T02:20:23.140Z,81.69
2022-10-09T02:22:51.439Z,81.36
2022-10-09T02:25:19.743Z,81.35
2022-10-09T02:27:48.390Z,81.10
2022-10-09T02:30:17.137Z,81.69
2022-10-09T02:32:46.896Z,81.25
2022-10-09T02:35:15.286Z,81.48
2022-10-09T02:37:43.285Z,81.06
2022-10-09T02:40:12.233Z,81.77
2022-10-09T02:42:40.208Z,82.18
2022-10-09T02:45:09.971Z,81.37
2022-10-09T02:47:38.645Z,82.01
2022-10-09T02:50:09.574Z,82.04
2022-10-09T02:52:37.668Z,81.46
2022-10-09T02:55:06.552Z,81.06
2022-10-09T02:57:34.560Z,81.75
2022-10-09T03:00:02.889Z,82.16
2022-10-09T03:02:31.135Z,82.11
2022-10-09T03:04:59.390Z,82.38
2022-10-09T03:07:28.904Z,82.72
2022-10-09T03:09:58.442Z,82.72
2022-10-09T03:12:26.779Z,83.18
2022-10-09T03:14:55.031Z,83.46
2022-10-09T03:17:23.324Z,83.95
2022-10-09T03:19:51.708Z,84.65
2022-10-09T03:22:20.092Z,84.00
2022-10-09T03:24:49.693Z,83.94
2022-10-09T03:27:17.865Z,85.04
2022-10-09T03:29:46.207Z,84.95
2022-10-09T03:32:14.598Z,85.30
2022-10-09T03:34:42.769Z,84.31
2022-10-09T03:37:10.773Z,85.03
2022-10-09T03:39:38.754Z,85.22
2022-10-09T03:42:08.240Z,84.71
2022-10-09T03:44:36.407Z,85.12
2022-10-09T03:47:04.492Z,85.20
2022-10-09T03:49:32.688Z,85.67
2022-10-09T03:52:00.838Z,85.12
2022-10-09T03:54:28.881Z,85.02
2022-10-09T03:56:56.904Z,84.57
2022-10-09T03:59:26.332Z,84.89
2022-10-09T04:01:54.551Z,84.20
2022-10-09T04:04:22.637Z,84.23
2022-10-09T04:06:50.820Z,84.85
2022-10-09T04:09:18.836Z,85.14
2022-10-09T04:11:46.797Z,84.23
2022-10-09T04:14:14.884Z,85.29
2022-10-09T04:16:44.418Z,85.09
2022-10-09T04:19:13.184Z,85.43
2022-10-09T04:21:41.669Z,85.19
2022-10-09T04:24:10.104Z,84.80
2022-10-09T04:26:38.599Z,85.09
2022-10-09T04:29:07.266Z,85.04
2022-10-09T04:31:35.868Z,84.76
2022-10-09T04:34:05.939Z,84.63
2022-10-09T04:36:34.265Z,85.04
2022-10-09T04:39:02.652Z,84.91
2022-10-09T04:41:34.614Z,84.23
2022-10-09T04:44:05.526Z,84.74
2022-10-09T04:46:33.604Z,85.20
2022-10-09T04:49:01.614Z,84.45
2022-10-09T04:51:30.967Z,84.69
2022-10-09T04:54:00.783Z,84.33
2022-10-09T04:56:29.006Z,85.03
2022-10-09T04:58:57.019Z,84.85
2022-10-09T05:01:28.102Z,85.05
2022-10-09T05:03:56.391Z,85.18
2022-10-09T05:06:25.416Z,85.61
2022-10-09T05:08:55.741Z,85.38
2022-10-09T05:11:25.571Z,85.33
2022-10-09T05:13:56.052Z,85.63
2022-10-09T05:16:26.708Z,85.45
2022-10-09T05:18:57.035Z,86.11
2022-10-09T05:21:25.938Z,85.82
2022-10-09T05:23:56.118Z,86.33
2022-10-09T05:26:25.963Z,86.11
2022-10-09T05:28:54.165Z,86.00
2022-10-09T05:31:24.455Z,86.49
2022-10-09T05:33:52.922Z,85.93
2022-10-09T05:36:21.051Z,85.48
2022-10-09T05:38:49.403Z,86.32
2022-10-09T05:41:20.072Z,86.35
2022-10-09T05:43:49.439Z,87.04
2022-10-09T05:46:19.011Z,87.08
2022-10-09T05:48:51.749Z,86.96
2022-10-09T05:51:22.240Z,86.77
2022-10-09T05:53:50.918Z,86.94
2022-10-09T05:56:21.471Z,86.80
2022-10-09T05:58:51.937Z,87.55
2022-10-09T06:01:20.545Z,88.14
2022-10-09T06:03:52.074Z,87.87
2022-10-09T06:06:21.393Z,87.99
2022-10-09T06:08:50.020Z,88.60
2022-10-09T06:11:21.170Z,88.34
2022-10-09T06:13:49.741Z,88.02
2022-10-09T06:16:19.452Z,88.33
2022-10-09T06:18:49.571Z,88.11
2022-10-09T06:21:18.308Z,88.38
2022-10-09T06:23:49.663Z,88.23
2022-10-09T06:26:17.772Z,88.40
2022-10-09T06:28:47.568Z,88.47
2022-10-09T06:31:17.639Z,87.99
2022-10-09T06:33:46.830Z,87.90
2022-10-09T06:36:17.259Z,88.63
2022-10-09T06:38:45.472Z,88.70
2022-10-09T06:41:14.958Z,88.44
2022-10-09T06:43:43.861Z,89.37
2022-10-09T06:46:13.760Z,88.70
2022-10-09T06:48:41.997Z,88.73
2022-10-09T06:51:11.829Z,89.22
2022-10-09T06:53:42.804Z,88.98
2022-10-09T06:56:11.469Z,89.14
2022-10-09T06:58:40.219Z,89.39
2022-10-09T07:01:09.841Z,89.55
2022-10-09T07:03:40.938Z,89.53
2022-10-09T07:06:11.215Z,89.62
2022-10-09T07:08:39.975Z,89.81
2022-10-09T07:11:11.917Z,90.15
2022-10-09T07:13:40.256Z,90.32
2022-10-09T07:16:08.568Z,89.67
2022-10-09T07:18:37.366Z,89.92
2022-10-09T07:21:09.033Z,89.92
2022-10-09T07:23:37.669Z,90.87
2022-10-09T07:26:11.762Z,90.75
2022-10-09T07:28:41.259Z,90.05
2022-10-09T07:31:10.201Z,90.20
2022-10-09T07:33:38.666Z,90.50
2022-10-09T07:36:09.017Z,91.21
2022-10-09T07:38:37.264Z,90.63
2022-10-09T07:41:06.941Z,90.83
2022-10-09T07:43:36.108Z,90.97
2022-10-09T07:46:05.870Z,90.19
2022-10-09T07:48:35.243Z,90.79
2022-10-09T07:51:10.512Z,90.73
2022-10-09T07:53:38.778Z,90.32
2022-10-09T07:56:07.408Z,91.01
2022-10-09T07:58:35.569Z,90.58
2022-10-09T08:01:07.599Z,91.04
2022-10-09T08:03:36.279Z,90.52
2022-10-09T08:06:04.668Z,90.24
2022-10-09T08:08:34.229Z,89.74
2022-10-09T08:11:02.690Z,90.21
2022-10-09T08:13:30.712Z,90.47
2022-10-09T08:15:59.588Z,90.15
2022-10-09T08:18:27.710Z,90.59
2022-10-09T08:20:59.681Z,90.02
2022-10-09T08:23:28.120Z,90.64
2022-10-09T08:25:57.686Z,90.29
2022-10-09T08:28:25.920Z,89.66
2022-10-09T08:30:54.106Z,90.21
2022-10-09T08:33:23.512Z,89.91
2022-10-09T08:35:51.938Z,90.95
2022-10-09T08:38:45.007Z,89.46
2022-10-09T08:41:11.438Z,90.07
2022-10-09T08:43:43.688Z,90.22
2022-10-09T08:46:20.575Z,90.23
2022-10-09T08:48:49.831Z,89.88
2022-10-09T08:51:23.300Z,89.53
2022-10-09T08:53:55.777Z,89.46
2022-10-09T08:56:26.479Z,89.17
2022-10-09T08:58:54.548Z,89.59
2022-10-09T09:01:29.229Z,89.96
2022-10-09T09:04:14.095Z,88.84
2022-10-09T09:06:47.706Z,88.66
2022-10-09T09:09:20.654Z,89.50
2022-10-09T09:11:54.086Z,89.23
2022-10-09T09:14:33.269Z,88.78
2022-10-09T09:17:07.482Z,88.73
2022-10-09T09:19:42.346Z,88.63
2022-10-09T09:22:11.719Z,88.73
2022-10-09T09:24:42.048Z,88.46
2022-10-09T09:27:15.784Z,88.45
2022-10-09T09:29:46.295Z,87.61
2022-10-09T09:32:19.067Z,87.43
2022-10-09T09:34:47.351Z,87.13
2022-10-09T09:37:15.825Z,87.66
2022-10-09T09:42:33.965Z,86.85
2022-10-09T09:45:06.019Z,86.56
2022-10-09T09:47:35.570Z,85.95
2022-10-09T09:50:05.765Z,85.62
2022-10-09T09:52:36.512Z,85.10
2022-10-09T09:55:05.406Z,85.24
2022-10-09T09:57:37.227Z,84.83
2022-10-09T10:00:10.785Z,84.04
2022-10-09T10:02:38.797Z,83.56
2022-10-09T10:05:18.848Z,83.39
2022-10-09T10:07:50.027Z,82.71
2022-10-09T10:10:24.689Z,82.73
2022-10-09T10:12:59.987Z,82.36
2022-10-09T10:15:30.233Z,81.16
2022-10-09T10:18:04.098Z,81.26
2022-10-09T10:20:34.000Z,80.91
2022-10-09T10:23:02.319Z,79.79
2022-10-09T10:25:33.461Z,78.87
2022-10-09T10:28:07.278Z,78.99
2022-10-09T10:30:36.339Z,78.04
2022-10-09T10:33:07.402Z,78.26
2022-10-09T10:35:37.836Z,76.58
2022-10-09T10:38:19.315Z,76.95
2022-10-09T10:41:13.474Z,77.09
2022-10-09T10:43:46.102Z,76.18
2022-10-09T10:46:23.773Z,75.32
2022-10-09T10:48:52.267Z,75.16
2022-10-09T10:51:32.451Z,77.06
2022-10-09T10:54:08.694Z,75.78
2022-10-09T10:56:39.536Z,73.95
2022-10-09T10:59:24.671Z,73.35
2022-10-09T11:02:00.723Z,73.78
2022-10-09T11:04:38.519Z,74.53
2022-10-09T11:07:14.579Z,72.95
2022-10-09T11:09:50.520Z,72.47
2022-10-09T11:12:43.710Z,73.98
2022-10-09T11:15:21.200Z,72.55
2022-10-09T11:17:55.831Z,71.75
2022-10-09T11:20:53.493Z,72.00
2022-10-09T11:23:52.364Z,72.92
2022-10-09T11:26:27.935Z,72.74
2022-10-09T11:29:00.568Z,70.74
2022-10-09T11:31:34.328Z,70.06
2022-10-09T11:34:06.882Z,69.91
2022-10-09T11:36:38.243Z,69.39
2022-10-09T11:39:09.303Z,70.05
2022-10-09T11:41:38.209Z,70.00
2022-10-09T11:44:19.647Z,69.19
2022-10-09T11:46:51.147Z,69.47
2022-10-09T11:49:23.682Z,69.40
2022-10-09T11:51:57.035Z,68.87
2022-10-09T11:54:27.424Z,69.31
2022-10-09T11:56:57.498Z,69.23
2022-10-09T11:59:30.099Z,68.69
2022-10-09T12:02:00.789Z,69.99
2022-10-09T12:04:50.575Z,68.36
2022-10-09T12:07:28.818Z,68.93
2022-10-09T12:10:00.728Z,69.40
2022-10-09T12:12:30.376Z,68.85
2022-10-09T12:14:58.439Z,69.26
2022-10-09T12:17:38.424Z,68.22
2022-10-09T12:20:09.320Z,68.72
2022-10-09T12:22:41.424Z,68.73
2022-10-09T12:25:16.909Z,67.83
2022-10-09T12:27:45.888Z,67.59
2022-10-09T12:30:20.681Z,67.40
2022-10-09T12:32:53.606Z,67.55
2022-10-09T12:35:24.000Z,66.71
2022-10-09T12:37:52.366Z,67.60
2022-10-09T12:40:24.591Z,66.71
2022-10-09T12:42:53.971Z,66.58
2022-10-09T12:45:23.759Z,66.29
2022-10-09T12:47:53.990Z,67.33
2022-10-09T12:50:25.102Z,66.03
2022-10-09T12:52:55.139Z,66.87
2022-10-09T12:55:27.761Z,65.05
2022-10-09T12:57:58.474Z,66.56
2022-10-09T13:00:26.569Z,65.74
2022-10-09T13:02:56.459Z,66.51
2022-10-09T13:05:24.700Z,66.64
2022-10-09T13:07:54.157Z,65.06
2022-10-09T13:10:24.066Z,64.39
2022-10-09T13:12:54.340Z,65.22
2022-10-09T13:15:46.597Z,65.58
2022-10-09T13:18:21.943Z,65.41
2022-10-09T13:20:59.762Z,65.60
2022-10-09T13:23:29.916Z,64.73
2022-10-09T13:26:01.213Z,64.26
2022-10-09T13:28:31.766Z,63.29
2022-10-09T13:31:07.323Z,63.89
2022-10-09T13:33:36.925Z,65.59
2022-10-09T13:36:05.100Z,64.05
2022-10-09T13:38:35.086Z,63.66
2022-10-09T13:41:03.641Z,64.61
2022-10-09T13:43:31.746Z,63.62
2022-10-09T13:46:00.188Z,61.50
2022-10-09T13:48:29.497Z,62.13
2022-10-09T13:50:59.894Z,61.91
2022-10-09T13:53:28.962Z,61.56
2022-10-09T13:56:00.760Z,62.22
2022-10-09T13:58:29.519Z,61.10
2022-10-09T14:00:58.159Z,62.48
2022-10-09T14:03:26.190Z,62.46
2022-10-09T14:06:00.460Z,62.48
2022-10-09T14:08:28.605Z,63.41
2022-10-09T14:10:56.985Z,62.25
2022-10-09T14:13:24.992Z,60.45
2022-10-09T14:15:53.218Z,61.30
2022-10-09T14:18:21.337Z,62.95
2022-10-09T14:20:49.354Z,62.15
2022-10-09T14:23:18.737Z,61.21
2022-10-09T14:25:46.709Z,61.01
2022-10-09T14:28:14.768Z,60.71
2022-10-09T14:30:43.401Z,60.69
2022-10-09T14:33:12.579Z,61.86
2022-10-09T14:35:40.710Z,62.19
2022-10-09T14:38:08.725Z,61.72
2022-10-09T14:40:42.768Z,62.40
2022-10-09T14:43:10.971Z,61.50
2022-10-09T14:45:39.334Z,62.12
2022-10-09T14:48:07.401Z,61.66
2022-10-09T14:50:36.669Z,61.87
2022-10-09T14:53:04.859Z,61.24
2022-10-09T14:55:35.540Z,60.91
2022-10-09T14:58:04.875Z,61.37
2022-10-09T15:00:32.984Z,61.22
2022-10-09T15:03:00.970Z,62.17
2022-10-09T15:05:29.134Z,62.26
2022-10-09T15:07:57.151Z,62.50
2022-10-09T15:10:25.173Z,61.83
2022-10-09T15:12:53.194Z,61.67
2022-10-09T15:15:22.645Z,61.67
2022-10-09T15:17:50.849Z,62.64
2022-10-09T15:20:19.083Z,61.74
2022-10-09T15:22:47.125Z,62.42
2022-10-09T15:25:16.722Z,61.92
2022-10-09T15:27:44.918Z,62.53
2022-10-09T15:30:13.621Z,62.86
2022-10-09T15:32:43.045Z,62.87
2022-10-09T15:35:11.265Z,63.07
2022-10-09T15:37:39.387Z,62.80
2022-10-09T15:40:08.534Z,63.26
2022-10-09T15:42:37.266Z,62.99
2022-10-09T15:45:05.898Z,63.17
2022-10-09T15:47:50.553Z,62.97
2022-10-09T15:50:20.749Z,62.47
2022-10-09T15:52:49.036Z,63.32
2022-10-09T15:55:17.417Z,62.90
2022-10-09T15:57:45.394Z,63.75
2022-10-09T16:00:14.540Z,63.14
2022-10-09T16:02:42.588Z,63.21
2022-10-09T16:05:10.842Z,63.61
2022-10-09T16:07:41.363Z,64.34
2022-10-09T16:10:09.906Z,64.34
2022-10-09T16:12:37.948Z,64.80
2022-10-09T16:15:06.689Z,64.66
2022-10-09T16:17:34.772Z,64.08
2022-10-09T16:20:02.885Z,64.11
2022-10-09T16:22:31.103Z,64.36
2022-10-09T16:25:00.486Z,64.50
2022-10-09T16:27:28.546Z,64.54
2022-10-09T16:29:56.560Z,64.48
2022-10-09T16:32:24.574Z,64.54
2022-10-09T16:34:52.562Z,64.75
2022-10-09T16:37:20.582Z,65.19
2022-10-09T16:39:49.446Z,65.49
2022-10-09T16:42:18.872Z,65.11
2022-10-09T16:44:46.908Z,65.44
2022-10-09T16:47:15.087Z,65.80
2022-10-09T16:49:43.147Z,66.11
2022-10-09T16:52:11.248Z,66.01
2022-10-09T16:54:39.943Z,66.41
2022-10-09T16:57:07.989Z,66.69
2022-10-09T16:59:37.427Z,66.58
2022-10-09T17:02:05.620Z,66.78
2022-10-09T17:04:34.302Z,67.62
2022-10-09T17:07:02.372Z,67.41
2022-10-09T17:09:30.790Z,68.02
2022-10-09T17:11:59.118Z,68.14
2022-10-09T17:14:27.156Z,68.56
2022-10-09T17:16:56.562Z,68.93
2022-10-09T17:19:24.652Z,68.59
2022-10-09T17:21:52.737Z,68.53
2022-10-09T17:24:20.810Z,68.56
2022-10-09T17:26:48.871Z,68.58
2022-10-09T17:29:16.943Z,68.56
2022-10-09T17:31:44.982Z,68.79
2022-10-09T17:34:14.563Z,68.93
2022-10-09T17:36:43.584Z,68.47
2022-10-09T17:39:14.488Z,69.13
2022-10-09T17:41:45.666Z,69.51
2022-10-09T17:44:15.133Z,69.18
2022-10-09T17:46:43.645Z,69.32
2022-10-09T17:49:11.895Z,68.68
2022-10-09T17:51:41.528Z,68.84
2022-10-09T17:54:12.498Z,69.07
2022-10-09T17:56:41.089Z,68.85
2022-10-09T17:59:09.593Z,68.58
2022-10-09T18:01:37.826Z,69.10
2022-10-09T18:04:06.066Z,69.07
2022-10-09T18:06:35.626Z,68.95
2022-10-09T18:09:05.900Z,69.27
2022-10-09T18:11:33.970Z,69.34
2022-10-09T18:14:02.029Z,69.76
2022-10-09T18:16:35.761Z,69.87
2022-10-09T18:19:06.345Z,69.59
2022-10-09T18:21:35.723Z,69.88
2022-10-09T18:24:05.861Z,70.34
2022-10-09T18:26:34.646Z,70.15
2022-10-09T18:29:03.364Z,70.05
2022-10-09T18:31:32.137Z,70.13
2022-10-09T18:34:00.571Z,70.53
2022-10-09T18:36:31.612Z,70.60
2022-10-09T18:39:01.806Z,70.77
2022-10-09T18:41:31.421Z,70.69
2022-10-09T18:44:03.183Z,71.09
2022-10-09T18:46:36.153Z,71.11
2022-10-09T18:49:09.202Z,71.22
2022-10-09T18:51:38.329Z,71.15
2022-10-09T18:54:07.847Z,71.33
2022-10-09T18:56:38.215Z,71.05
2022-10-09T18:59:08.450Z,71.38
2022-10-09T19:01:36.691Z,71.57
2022-10-09T19:04:04.847Z,71.57
2022-10-09T19:06:32.891Z,71.42
2022-10-09T19:09:01.594Z,71.71
2022-10-09T19:11:30.421Z,71.56
2022-10-09T19:14:00.807Z,71.75
2022-10-09T19:16:29.536Z,71.73
2022-10-09T19:18:57.581Z,72.15
2022-10-09T19:21:26.019Z,72.20
2022-10-09T19:23:54.757Z,72.37
2022-10-09T19:26:23.451Z,72.09
2022-10-09T19:28:51.948Z,72.44
2022-10-09T19:31:21.448Z,72.33
2022-10-09T19:33:49.454Z,72.16
2022-10-09T19:36:17.593Z,72.68
2022-10-09T19:38:45.656Z,72.80
2022-10-09T19:41:15.491Z,73.14
2022-10-09T19:43:43.915Z,73.19
2022-10-09T19:46:14.302Z,72.95
2022-10-09T19:48:44.132Z,72.97
2022-10-09T19:51:14.064Z,72.52
2022-10-09T19:53:42.333Z,72.79
2022-10-09T19:56:11.639Z,73.14
2022-10-09T19:58:41.206Z,73.02
2022-10-09T20:01:11.276Z,73.06
2022-10-09T20:03:41.413Z,73.20
2022-10-09T20:06:11.335Z,73.35
2022-10-09T20:08:40.886Z,73.11
2022-10-09T20:11:12.437Z,73.26
2022-10-09T20:13:41.893Z,73.28
2022-10-09T20:16:12.370Z,73.05
2022-10-09T20:18:42.297Z,73.49
2022-10-09T20:21:12.953Z,73.45
2022-10-09T20:23:41.248Z,73.42
2022-10-09T20:26:12.459Z,73.37
2022-10-09T20:28:40.927Z,73.43
2022-10-09T20:31:11.745Z,73.16
2022-10-09T20:33:40.132Z,73.46
2022-10-09T20:36:17.521Z,73.69
2022-10-09T20:38:45.522Z,73.40
2022-10-09T20:41:13.524Z,74.00
2022-10-09T20:43:41.582Z,73.86
2022-10-09T20:46:10.346Z,73.77
2022-10-09T20:48:38.385Z,74.13
2022-10-09T20:51:06.839Z,73.79
2022-10-09T20:53:36.395Z,73.92
2022-10-09T20:56:06.699Z,73.84
2022-10-09T20:58:35.320Z,73.81
2022-10-09T21:01:05.950Z,74.18
2022-10-09T21:03:34.536Z,74.82
2022-10-09T21:06:27.803Z,74.40
2022-10-09T21:08:58.138Z,74.62
2022-10-09T21:11:26.212Z,74.70
2022-10-09T21:13:54.256Z,73.92
2022-10-09T21:16:24.132Z,73.72
2022-10-09T21:18:55.249Z,74.50
2022-10-09T21:21:23.349Z,74.15
2022-10-09T21:23:51.913Z,74.01
2022-10-09T21:26:22.199Z,74.64
2022-10-09T21:28:52.442Z,74.80
2022-10-09T21:31:26.315Z,74.38
2022-10-09T21:33:54.287Z,73.98
2022-10-09T21:36:27.485Z,74.21
2022-10-09T21:38:55.466Z,74.10
2022-10-09T21:41:24.962Z,74.64
2022-10-09T21:43:52.958Z,74.92
2022-10-09T21:46:20.987Z,74.08
2022-10-09T21:48:48.965Z,74.27
2022-10-09T21:51:17.122Z,74.74
2022-10-09T21:53:45.159Z,74.53
2022-10-09T21:56:13.452Z,73.87
2022-10-09T21:58:48.130Z,74.00
2022-10-09T22:01:17.291Z,73.93
2022-10-09T22:03:45.468Z,74.14
2022-10-09T22:06:18.880Z,74.12
2022-10-09T22:08:47.982Z,74.09
2022-10-09T22:11:16.610Z,74.11
2022-10-09T22:13:46.096Z,74.18
2022-10-09T22:16:16.216Z,74.19
2022-10-09T22:18:44.571Z,74.45
2022-10-09T22:21:14.755Z,74.58
2022-10-09T22:23:43.060Z,74.50
2022-10-09T22:26:13.235Z,74.55
2022-10-09T22:28:41.362Z,73.94
2022-10-09T22:31:14.644Z,74.80
2022-10-09T22:33:43.215Z,74.34
2022-10-09T22:36:13.232Z,74.66
2022-10-09T22:38:41.938Z,74.54
2022-10-09T22:41:10.948Z,74.41
2022-10-09T22:43:40.193Z,74.46
2022-10-09T22:46:11.405Z,75.13
2022-10-09T22:48:40.486Z,75.14
2022-10-09T22:51:10.808Z,75.25
2022-10-09T22:53:39.739Z,74.58
2022-10-09T22:56:09.326Z,74.80
2022-10-09T22:58:37.334Z,74.74
2022-10-09T23:01:07.511Z,74.16
2022-10-09T23:03:36.912Z,75.05
2022-10-09T23:06:09.511Z,74.49
2022-10-09T23:08:38.734Z,75.07
2022-10-09T23:11:07.018Z,75.00
2022-10-09T23:13:35.361Z,74.98
2022-10-09T23:16:04.794Z,75.30
2022-10-09T23:18:33.371Z,75.59
2022-10-09T23:21:04.970Z,75.73
2022-10-09T23:23:34.074Z,75.80
2022-10-09T23:26:04.931Z,76.04
2022-10-09T23:28:33.013Z,75.57
2022-10-09T23:31:04.805Z,75.37
2022-10-09T23:33:32.850Z,75.63
2022-10-09T23:36:04.433Z,75.58
2022-10-09T23:38:32.418Z,75.74
2022-10-09T23:41:02.249Z,75.82
2022-10-09T23:43:30.872Z,75.59
2022-10-09T23:46:00.077Z,75.80
2022-10-09T23:48:28.668Z,75.76
2022-10-09T23:50:57.304Z,76.55
2022-10-09T23:53:27.494Z,76.51
2022-10-09T23:55:56.082Z,75.99
2022-10-09T23:58:24.574Z,76.75
